createdAt,value
2018-01-26T00:02:15.359Z,7.60
2018-01-26T00:04:42.879Z,7.60
2018-01-26T00:07:11.918Z,7.50
2018-01-26T00:09:39.434Z,7.50
2018-01-26T00:12:06.976Z,7.40
2018-01-26T00:14:34.494Z,7.40
2018-01-26T00:17:02.511Z,7.50
2018-01-26T00:19:30.835Z,7.40
2018-01-26T00:21:58.350Z,7.40
2018-01-26T00:24:26.659Z,7.40
2018-01-26T00:26:54.175Z,7.40
2018-01-26T00:29:21.697Z,7.40
2018-01-26T00:31:49.235Z,7.10
2018-01-26T00:34:16.755Z,7.00
2018-01-26T00:36:44.305Z,7.00
2018-01-26T00:39:11.839Z,6.90
2018-01-26T00:41:39.359Z,6.90
2018-01-26T00:44:07.692Z,6.80
2018-01-26T00:46:35.210Z,6.80
2018-01-26T00:49:02.747Z,6.90
2018-01-26T00:51:31.041Z,7.10
2018-01-26T00:53:58.559Z,7.10
2018-01-26T00:56:26.091Z,7.40
2018-01-26T00:58:53.621Z,7.60
2018-01-26T01:01:21.173Z,7.80
2018-01-26T01:03:49.453Z,8.20
2018-01-26T01:06:16.987Z,8.20
2018-01-26T01:08:44.529Z,8.30
2018-01-26T01:11:12.068Z,8.40
2018-01-26T01:13:39.612Z,8.50
2018-01-26T01:16:07.138Z,8.60
2018-01-26T01:18:35.419Z,8.70
2018-01-26T01:21:03.710Z,8.70
2018-01-26T01:23:31.282Z,8.70
2018-01-26T01:25:58.801Z,8.60
2018-01-26T01:28:27.331Z,8.50
2018-01-26T01:30:54.861Z,8.50
2018-01-26T01:33:22.391Z,8.50
2018-01-26T01:35:50.688Z,8.30
2018-01-26T01:38:18.273Z,8.30
2018-01-26T01:40:45.787Z,8.20
2018-01-26T01:43:14.077Z,8.10
2018-01-26T01:45:41.945Z,8.00
2018-01-26T01:48:10.355Z,8.50
2018-01-26T01:50:37.892Z,8.50
2018-01-26T01:53:05.429Z,8.70
2018-01-26T01:55:33.737Z,8.80
2018-01-26T01:58:01.251Z,8.80
2018-01-26T02:00:30.515Z,8.80
2018-01-26T02:02:58.043Z,8.80
2018-01-26T02:05:25.677Z,8.80
2018-01-26T02:07:53.225Z,8.90
2018-01-26T02:10:21.533Z,9.00
2018-01-26T02:12:49.065Z,8.90
2018-01-26T02:15:16.891Z,8.90
2018-01-26T02:17:45.418Z,8.90
2018-01-26T02:20:14.387Z,9.00
2018-01-26T02:22:42.695Z,9.00
2018-01-26T02:25:10.989Z,9.00
2018-01-26T02:27:38.528Z,9.00
2018-01-26T02:30:06.821Z,8.70
2018-01-26T02:32:34.365Z,8.70
2018-01-26T02:35:02.657Z,8.70
2018-01-26T02:37:30.185Z,8.70
2018-01-26T02:39:57.710Z,8.60
2018-01-26T02:42:25.224Z,8.60
2018-01-26T02:44:53.523Z,8.30
2018-01-26T02:47:21.048Z,8.30
2018-01-26T02:49:49.580Z,8.10
2018-01-26T02:52:17.335Z,8.10
2018-01-26T02:54:45.212Z,8.00
2018-01-26T02:57:12.753Z,8.00
2018-01-26T02:59:40.270Z,7.90
2018-01-26T03:02:08.570Z,7.50
2018-01-26T03:04:36.094Z,7.50
2018-01-26T03:07:03.615Z,7.50
2018-01-26T03:09:31.146Z,7.40
2018-01-26T03:11:58.725Z,7.30
2018-01-26T03:14:26.505Z,7.20
2018-01-26T03:16:54.038Z,7.20
2018-01-26T03:19:21.593Z,7.10
2018-01-26T03:21:49.124Z,7.10
2018-01-26T03:24:17.417Z,7.10
2018-01-26T03:26:44.961Z,7.10
2018-01-26T03:29:13.243Z,7.10
2018-01-26T03:31:41.554Z,7.10
2018-01-26T03:34:09.081Z,7.10
2018-01-26T03:36:37.371Z,7.10
2018-01-26T03:39:04.906Z,7.10
2018-01-26T03:41:33.213Z,7.10
2018-01-26T03:44:00.732Z,7.10
2018-01-26T03:46:28.275Z,7.10
2018-01-26T03:48:55.810Z,7.10
2018-01-26T03:51:23.327Z,7.10
2018-01-26T03:53:50.879Z,7.00
2018-01-26T03:56:19.201Z,6.90
2018-01-26T03:58:46.730Z,6.90
2018-01-26T04:01:14.247Z,6.70
2018-01-26T04:03:41.793Z,6.60
2018-01-26T04:06:09.328Z,6.60
2018-01-26T04:08:36.860Z,6.60
2018-01-26T04:11:04.401Z,6.60
2018-01-26T04:13:32.680Z,6.70
2018-01-26T04:16:01.215Z,6.70
2018-01-26T04:18:28.741Z,6.70
2018-01-26T04:20:56.321Z,6.80
2018-01-26T04:23:23.849Z,6.80
2018-01-26T04:25:52.141Z,6.80
2018-01-26T04:28:19.729Z,6.80
2018-01-26T04:30:47.242Z,6.80
2018-01-26T04:33:15.563Z,6.70
2018-01-26T04:35:43.089Z,6.70
2018-01-26T04:38:10.653Z,6.70
2018-01-26T04:40:38.199Z,6.50
2018-01-26T04:43:06.514Z,6.30
2018-01-26T04:45:34.054Z,6.30
2018-01-26T04:48:01.587Z,6.20
2018-01-26T04:50:29.883Z,6.40
2018-01-26T04:52:57.413Z,6.40
2018-01-26T04:55:25.715Z,6.60
2018-01-26T04:57:53.249Z,6.50
2018-01-26T05:00:21.541Z,6.60
2018-01-26T05:02:49.071Z,6.60
2018-01-26T05:05:16.596Z,6.60
2018-01-26T05:07:44.131Z,6.60
2018-01-26T05:10:15.242Z,6.70
2018-01-26T05:12:43.665Z,6.70
2018-01-26T05:15:12.862Z,6.70
2018-01-26T05:17:40.374Z,6.70
2018-01-26T05:20:08.671Z,6.70
2018-01-26T05:22:36.196Z,6.70
2018-01-26T05:25:03.740Z,6.70
2018-01-26T05:27:31.251Z,6.70
2018-01-26T05:29:58.791Z,6.70
2018-01-26T05:32:27.104Z,6.60
2018-01-26T05:34:54.635Z,6.60
2018-01-26T05:37:23.025Z,6.50
2018-01-26T05:39:50.542Z,6.50
2018-01-26T05:42:18.075Z,6.50
2018-01-26T05:44:45.591Z,6.50
2018-01-26T05:47:13.137Z,6.40
2018-01-26T05:49:41.459Z,6.50
2018-01-26T05:52:08.975Z,6.50
2018-01-26T05:54:37.288Z,6.70
2018-01-26T05:57:04.803Z,6.70
2018-01-26T05:59:33.103Z,6.30
2018-01-26T06:02:00.653Z,6.30
2018-01-26T06:04:28.201Z,6.10
2018-01-26T06:06:56.492Z,6.10
2018-01-26T06:09:24.007Z,6.10
2018-01-26T06:11:51.549Z,6.30
2018-01-26T06:14:19.413Z,6.30
2018-01-26T06:16:46.944Z,6.20
2018-01-26T06:19:14.473Z,6.20
2018-01-26T06:21:42.793Z,6.20
2018-01-26T06:24:10.342Z,6.20
2018-01-26T06:26:37.889Z,6.30
2018-01-26T06:29:05.425Z,6.30
2018-01-26T06:31:33.733Z,6.40
2018-01-26T06:34:01.261Z,6.40
2018-01-26T06:36:29.573Z,6.60
2018-01-26T06:38:57.100Z,6.50
2018-01-26T06:41:25.739Z,6.60
2018-01-26T06:43:53.288Z,6.50
2018-01-26T06:46:20.816Z,6.60
2018-01-26T06:48:48.357Z,6.60
2018-01-26T06:51:16.650Z,6.60
2018-01-26T06:53:44.184Z,6.50
2018-01-26T06:56:12.474Z,6.50
2018-01-26T06:58:40.016Z,6.50
2018-01-26T07:01:07.547Z,6.50
2018-01-26T07:03:35.083Z,6.60
2018-01-26T07:06:02.633Z,6.70
2018-01-26T07:08:30.155Z,6.70
2018-01-26T07:10:57.724Z,6.70
2018-01-26T07:13:26.003Z,6.50
2018-01-26T07:15:54.301Z,6.10
2018-01-26T07:18:21.834Z,6.10
2018-01-26T07:20:50.115Z,6.00
2018-01-26T07:23:18.411Z,6.00
2018-01-26T07:25:45.945Z,6.00
2018-01-26T07:28:14.273Z,6.20
2018-01-26T07:30:41.787Z,6.10
2018-01-26T07:33:10.068Z,6.20
2018-01-26T07:35:37.599Z,6.20
2018-01-26T07:38:05.112Z,6.30
2018-01-26T07:40:32.639Z,6.30
2018-01-26T07:43:00.173Z,6.40
2018-01-26T07:45:27.707Z,6.40
2018-01-26T07:47:55.223Z,6.50
2018-01-26T07:50:22.782Z,6.60
2018-01-26T07:52:50.316Z,6.70
2018-01-26T07:55:18.610Z,6.80
2018-01-26T07:57:46.157Z,6.80
2018-01-26T08:00:14.489Z,6.90
2018-01-26T08:02:41.995Z,6.90
2018-01-26T08:05:10.275Z,6.90
2018-01-26T08:07:38.579Z,6.90
2018-01-26T08:10:06.114Z,6.90
2018-01-26T08:12:33.640Z,6.80
2018-01-26T08:15:01.184Z,6.80
2018-01-26T08:17:28.703Z,7.00
2018-01-26T08:19:56.222Z,7.10
2018-01-26T08:22:23.755Z,7.20
2018-01-26T08:24:51.271Z,7.30
2018-01-26T08:27:18.803Z,7.40
2018-01-26T08:29:47.342Z,7.60
2018-01-26T08:32:14.855Z,7.50
2018-01-26T08:34:43.161Z,7.60
2018-01-26T08:37:10.675Z,7.60
2018-01-26T08:39:38.979Z,7.90
2018-01-26T08:42:06.516Z,7.80
2018-01-26T08:44:34.817Z,8.00
2018-01-26T08:47:02.369Z,8.00
2018-01-26T08:49:29.888Z,7.90
2018-01-26T08:51:57.437Z,7.90
2018-01-26T08:54:24.970Z,7.80
2018-01-26T08:56:52.546Z,7.60
2018-01-26T08:59:20.142Z,7.50
2018-01-26T09:01:47.689Z,7.50
2018-01-26T09:04:15.211Z,7.50
2018-01-26T09:06:42.733Z,7.30
2018-01-26T09:09:11.028Z,7.40
2018-01-26T09:11:38.575Z,7.40
2018-01-26T09:14:06.864Z,7.60
2018-01-26T09:16:34.383Z,7.60
2018-01-26T09:19:01.920Z,7.70
2018-01-26T09:21:29.439Z,7.90
2018-01-26T09:23:57.227Z,8.00
2018-01-26T09:26:24.773Z,8.10
2018-01-26T09:28:52.555Z,8.20
2018-01-26T09:31:20.101Z,8.30
2018-01-26T09:33:47.615Z,8.40
2018-01-26T09:36:15.932Z,8.50
2018-01-26T09:38:43.463Z,8.50
2018-01-26T09:41:10.995Z,8.60
2018-01-26T09:43:40.045Z,8.70
2018-01-26T09:46:07.606Z,8.70
2018-01-26T09:48:35.186Z,8.80
2018-01-26T09:51:02.680Z,8.90
2018-01-26T09:53:30.993Z,9.10
2018-01-26T09:55:58.519Z,9.10
2018-01-26T09:58:26.809Z,9.20
2018-01-26T10:00:54.350Z,9.20
2018-01-26T10:03:22.630Z,9.30
2018-01-26T10:05:50.924Z,9.50
2018-01-26T10:08:18.681Z,9.40
2018-01-26T10:10:46.221Z,9.70
2018-01-26T10:13:14.503Z,10.40
2018-01-26T10:15:42.816Z,10.70
2018-01-26T10:18:10.353Z,10.60
2018-01-26T10:20:38.096Z,10.80
2018-01-26T10:23:06.409Z,10.90
2018-01-26T10:25:33.935Z,10.90
2018-01-26T10:28:02.231Z,11.00
2018-01-26T10:30:29.747Z,11.00
2018-01-26T10:35:26.937Z,10.70
2018-01-26T10:37:55.233Z,10.50
2018-01-26T10:40:22.764Z,10.50
2018-01-26T10:42:51.396Z,10.50
2018-01-26T10:45:18.937Z,10.50
2018-01-26T10:47:46.472Z,10.60
2018-01-26T10:50:14.793Z,10.80
2018-01-26T10:52:42.310Z,10.90
2018-01-26T10:55:10.599Z,10.90
2018-01-26T10:57:38.149Z,10.90
2018-01-26T11:00:06.446Z,10.90
2018-01-26T11:02:34.231Z,10.90
2018-01-26T11:05:01.996Z,11.00
2018-01-26T11:07:29.545Z,11.00
2018-01-26T11:09:57.106Z,11.00
2018-01-26T11:12:24.678Z,11.10
2018-01-26T11:14:52.227Z,11.10
2018-01-26T11:17:19.740Z,11.00
2018-01-26T11:19:48.054Z,11.00
2018-01-26T11:22:15.589Z,10.90
2018-01-26T11:24:43.125Z,10.90
2018-01-26T11:27:10.662Z,11.00
2018-01-26T11:29:38.188Z,10.80
2018-01-26T11:32:05.723Z,10.80
2018-01-26T11:34:33.239Z,10.80
2018-01-26T11:37:00.788Z,10.70
2018-01-26T11:39:28.313Z,10.80
2018-01-26T11:41:55.873Z,10.80
2018-01-26T11:44:23.387Z,10.80
2018-01-26T11:46:52.408Z,11.00
2018-01-26T11:49:20.824Z,11.10
2018-01-26T11:51:48.339Z,11.10
2018-01-26T11:54:16.650Z,11.10
2018-01-26T11:56:44.165Z,11.00
2018-01-26T11:59:12.482Z,11.10
2018-01-26T12:01:40.009Z,11.10
2018-01-26T12:04:08.295Z,11.30
2018-01-26T12:06:35.846Z,11.30
2018-01-26T12:09:04.131Z,11.30
2018-01-26T12:11:31.681Z,11.30
2018-01-26T12:13:59.960Z,11.60
2018-01-26T12:16:28.260Z,11.70
2018-01-26T12:18:56.040Z,11.60
2018-01-26T12:21:23.569Z,11.80
2018-01-26T12:23:51.098Z,11.80
2018-01-26T12:26:18.618Z,11.90
2018-01-26T12:28:46.169Z,11.90
2018-01-26T12:31:13.699Z,11.80
2018-01-26T12:33:41.494Z,11.60
2018-01-26T12:36:09.021Z,11.40
2018-01-26T12:38:36.555Z,11.40
2018-01-26T12:41:04.165Z,11.40
2018-01-26T12:43:31.680Z,11.40
2018-01-26T12:45:59.982Z,11.50
2018-01-26T12:48:27.498Z,11.50
2018-01-26T12:50:55.034Z,11.30
2018-01-26T12:53:22.581Z,11.30
2018-01-26T12:55:50.113Z,11.20
2018-01-26T12:58:17.701Z,11.20
2018-01-26T13:00:45.229Z,11.10
2018-01-26T13:03:12.743Z,11.00
2018-01-26T13:05:40.275Z,11.00
2018-01-26T13:08:08.043Z,10.90
2018-01-26T13:10:35.597Z,10.80
2018-01-26T13:13:03.120Z,10.80
2018-01-26T13:15:31.416Z,10.60
2018-01-26T13:17:58.961Z,10.60
2018-01-26T13:20:26.761Z,10.60
2018-01-26T13:22:54.295Z,10.50
2018-01-26T13:25:21.825Z,10.50
2018-01-26T13:27:50.153Z,10.60
2018-01-26T13:30:18.024Z,10.60
2018-01-26T13:32:45.549Z,10.60
2018-01-26T13:35:13.096Z,10.60
2018-01-26T13:37:40.628Z,10.50
2018-01-26T13:40:08.151Z,10.60
2018-01-26T13:42:35.683Z,10.70
2018-01-26T13:45:03.234Z,10.80
2018-01-26T13:47:31.528Z,10.70
2018-01-26T13:49:59.083Z,10.70
2018-01-26T13:52:26.584Z,10.80
2018-01-26T13:54:54.920Z,10.80
2018-01-26T13:57:22.453Z,10.80
2018-01-26T13:59:50.755Z,10.80
2018-01-26T14:02:18.285Z,10.80
2018-01-26T14:04:46.577Z,10.70
2018-01-26T14:07:14.125Z,10.70
2018-01-26T14:09:42.521Z,10.60
2018-01-26T14:12:10.069Z,10.60
2018-01-26T14:14:37.652Z,10.70
2018-01-26T14:17:05.177Z,10.60
2018-01-26T14:19:33.493Z,10.50
2018-01-26T14:22:01.011Z,10.50
2018-01-26T14:24:29.318Z,10.20
2018-01-26T14:26:56.897Z,10.20
2018-01-26T14:29:24.437Z,10.10
2018-01-26T14:31:51.977Z,10.10
2018-01-26T14:34:19.513Z,10.00
2018-01-26T14:36:47.807Z,9.90
2018-01-26T14:39:16.083Z,9.80
2018-01-26T14:41:44.389Z,9.70
2018-01-26T14:44:11.929Z,9.70
2018-01-26T14:46:39.442Z,9.60
2018-01-26T14:49:06.971Z,9.40
2018-01-26T14:51:34.497Z,9.40
2018-01-26T14:54:02.294Z,9.30
2018-01-26T14:56:29.807Z,9.30
2018-01-26T14:58:58.331Z,9.10
2018-01-26T15:01:25.869Z,9.10
2018-01-26T15:03:53.383Z,9.10
2018-01-26T15:06:20.924Z,9.00
2018-01-26T15:08:48.435Z,9.10
2018-01-26T15:11:15.965Z,9.10
2018-01-26T15:13:43.791Z,9.10
2018-01-26T15:16:11.303Z,9.10
2018-01-26T15:18:39.599Z,9.10
2018-01-26T15:21:07.122Z,9.00
2018-01-26T15:23:34.635Z,9.10
2018-01-26T15:26:02.170Z,9.10
2018-01-26T15:28:29.683Z,9.00
2018-01-26T15:30:57.234Z,9.00
2018-01-26T15:33:24.743Z,8.90
2018-01-26T15:35:52.266Z,8.80
2018-01-26T15:38:20.563Z,8.80
2018-01-26T15:40:48.896Z,8.70
2018-01-26T15:43:17.150Z,8.70
2018-01-26T15:45:44.663Z,8.70
2018-01-26T15:48:12.176Z,8.70
2018-01-26T15:50:40.513Z,8.60
2018-01-26T15:53:08.796Z,8.60
2018-01-26T15:55:36.327Z,8.60
2018-01-26T15:58:04.873Z,8.40
2018-01-26T16:00:32.383Z,8.40
2018-01-26T16:03:00.689Z,8.40
2018-01-26T16:05:28.202Z,8.40
2018-01-26T16:07:57.245Z,8.30
2018-01-26T16:10:24.759Z,8.30
2018-01-26T16:12:53.039Z,8.30
2018-01-26T16:15:21.345Z,8.30
2018-01-26T16:17:48.873Z,8.30
2018-01-26T16:20:17.189Z,8.30
2018-01-26T16:22:44.713Z,8.30
2018-01-26T16:25:13.245Z,8.20
2018-01-26T16:27:40.805Z,8.20
2018-01-26T16:30:08.567Z,8.20
2018-01-26T16:32:36.121Z,8.20
2018-01-26T16:35:03.636Z,8.20
2018-01-26T16:37:31.999Z,8.20
2018-01-26T16:39:59.530Z,8.10
2018-01-26T16:42:27.064Z,8.10
2018-01-26T16:44:54.933Z,8.00
2018-01-26T16:47:22.489Z,8.00
2018-01-26T16:49:50.027Z,8.00
2018-01-26T16:52:17.562Z,8.00
2018-01-26T16:54:45.075Z,8.00
2018-01-26T16:57:12.608Z,8.00
2018-01-26T16:59:40.132Z,8.00
2018-01-26T17:02:07.681Z,8.00
2018-01-26T17:04:35.203Z,8.00
2018-01-26T17:07:02.975Z,8.00
2018-01-26T17:09:30.642Z,8.00
2018-01-26T17:11:58.190Z,8.00
2018-01-26T17:14:25.742Z,8.00
2018-01-26T17:16:53.265Z,8.00
2018-01-26T17:19:21.565Z,7.90
2018-01-26T17:21:49.095Z,7.90
2018-01-26T17:24:17.376Z,8.00
2018-01-26T17:26:45.695Z,7.90
2018-01-26T17:29:13.225Z,7.90
2018-01-26T17:31:40.773Z,8.00
2018-01-26T17:34:09.069Z,8.00
2018-01-26T17:36:36.586Z,8.00
2018-01-26T17:39:04.125Z,8.00
2018-01-26T17:41:31.643Z,8.00
2018-01-26T17:43:59.179Z,8.00
2018-01-26T17:46:27.463Z,8.00
2018-01-26T17:48:55.784Z,8.00
2018-01-26T17:51:23.299Z,8.00
2018-01-26T17:53:51.600Z,7.90
2018-01-26T17:56:19.139Z,7.90
2018-01-26T17:58:46.666Z,7.90
2018-01-26T18:01:14.209Z,7.90
2018-01-26T18:03:41.737Z,7.90
2018-01-26T18:06:09.281Z,7.90
2018-01-26T18:08:36.805Z,7.90
2018-01-26T18:11:04.339Z,7.90
2018-01-26T18:13:31.863Z,7.90
2018-01-26T18:15:59.393Z,7.90
2018-01-26T18:18:27.687Z,7.90
2018-01-26T18:20:55.201Z,7.90
2018-01-26T18:23:22.791Z,7.90
2018-01-26T18:25:51.081Z,7.80
2018-01-26T18:28:18.677Z,7.80
2018-01-26T18:30:46.541Z,7.80
2018-01-26T18:33:14.079Z,7.90
2018-01-26T18:35:41.591Z,7.80
2018-01-26T18:38:09.117Z,7.80
2018-01-26T18:40:36.669Z,7.80
2018-01-26T18:43:04.223Z,7.90
2018-01-26T18:45:31.742Z,7.90
2018-01-26T18:48:00.059Z,7.90
2018-01-26T18:50:27.589Z,7.90
2018-01-26T18:52:55.122Z,7.90
2018-01-26T18:55:23.662Z,7.90
2018-01-26T18:57:51.189Z,7.80
2018-01-26T19:00:18.719Z,7.90
2018-01-26T19:02:47.744Z,7.90
2018-01-26T19:05:15.289Z,7.90
2018-01-26T19:07:43.584Z,7.90
2018-01-26T19:10:11.115Z,7.90
2018-01-26T19:12:39.402Z,7.90
2018-01-26T19:15:07.711Z,7.90
2018-01-26T19:17:35.489Z,7.80
2018-01-26T19:20:03.031Z,7.80
2018-01-26T19:22:30.556Z,7.80
2018-01-26T19:24:59.189Z,7.80
2018-01-26T19:27:26.717Z,7.80
2018-01-26T19:29:54.252Z,7.80
2018-01-26T19:32:22.547Z,7.80
2018-01-26T19:34:50.069Z,7.80
2018-01-26T19:37:17.619Z,7.80
2018-01-26T19:39:45.153Z,7.80
2018-01-26T19:42:12.683Z,7.70
2018-01-26T19:44:40.201Z,7.70
2018-01-26T19:47:08.028Z,7.70
2018-01-26T19:49:35.586Z,7.70
2018-01-26T19:52:03.130Z,7.70
2018-01-26T19:54:30.669Z,7.70
2018-01-26T19:56:58.947Z,7.70
2018-01-26T19:59:27.572Z,7.70
2018-01-26T20:01:55.102Z,7.70
2018-01-26T20:17:44.959Z,7.40
2018-01-26T20:20:13.244Z,7.30
2018-01-26T20:22:40.775Z,7.30
2018-01-26T20:25:09.060Z,7.40
2018-01-26T20:27:37.373Z,7.50
2018-01-26T20:30:04.949Z,7.40
2018-01-26T20:32:32.478Z,7.50
2018-01-26T20:35:00.375Z,7.50
2018-01-26T20:37:27.934Z,7.50
2018-01-26T20:39:55.484Z,7.50
2018-01-26T20:42:22.999Z,7.50
2018-01-26T20:44:51.634Z,7.50
2018-01-26T20:47:19.155Z,7.50
2018-01-26T20:49:46.685Z,7.50
2018-01-26T20:52:14.236Z,7.50
2018-01-26T20:54:41.748Z,7.50
2018-01-26T20:57:09.293Z,7.50
2018-01-26T20:59:36.810Z,7.50
2018-01-26T21:02:06.185Z,7.50
2018-01-26T21:04:33.721Z,7.50
2018-01-26T21:07:01.270Z,7.50
2018-01-26T21:09:28.807Z,7.50
2018-01-26T21:11:57.101Z,7.50
2018-01-26T21:14:24.646Z,7.40
2018-01-26T21:16:53.073Z,7.40
2018-01-26T21:19:20.624Z,7.40
2018-01-26T21:21:48.158Z,7.40
2018-01-26T21:24:15.957Z,7.40
2018-01-26T21:26:43.471Z,7.40
2018-01-26T21:29:11.767Z,7.40
2018-01-26T21:31:39.293Z,7.30
2018-01-26T21:34:07.615Z,7.40
2018-01-26T21:36:35.149Z,7.30
2018-01-26T21:39:02.676Z,7.40
2018-01-26T21:41:30.208Z,7.40
2018-01-26T21:43:57.726Z,7.30
2018-01-26T21:46:25.273Z,7.40
2018-01-26T21:48:53.567Z,7.30
2018-01-26T21:51:21.113Z,7.30
2018-01-26T21:53:48.627Z,7.30
2018-01-26T21:56:16.475Z,7.30
2018-01-26T21:58:44.026Z,7.30
2018-01-26T22:01:11.562Z,7.30
2018-01-26T22:03:39.105Z,7.30
2018-01-26T22:06:13.016Z,7.30
2018-01-26T22:08:41.333Z,7.30
2018-01-26T22:11:08.847Z,7.30
2018-01-26T22:13:37.169Z,7.30
2018-01-26T22:16:04.740Z,7.30
2018-01-26T22:18:32.453Z,7.30
2018-01-26T22:21:00.153Z,7.30
2018-01-26T22:23:28.014Z,7.30
2018-01-26T22:25:55.782Z,7.30
2018-01-26T22:28:23.625Z,7.30
2018-01-26T22:30:51.310Z,7.30
2018-01-26T22:33:18.858Z,7.30
2018-01-26T22:35:47.037Z,7.30
2018-01-26T22:38:14.801Z,7.20
2018-01-26T22:40:42.505Z,7.20
2018-01-26T22:43:10.311Z,7.20
2018-01-26T22:45:38.012Z,7.10
2018-01-26T22:48:05.829Z,7.00
2018-01-26T22:50:33.385Z,6.80
2018-01-26T22:53:00.985Z,6.70
2018-01-26T22:55:28.533Z,6.90
2018-01-26T22:57:56.342Z,6.90
2018-01-26T23:00:24.264Z,7.00
2018-01-26T23:02:51.809Z,7.00
2018-01-26T23:05:19.359Z,7.10
2018-01-26T23:07:47.903Z,7.10
2018-01-26T23:10:15.833Z,7.10
2018-01-26T23:12:43.405Z,7.10
2018-01-26T23:15:10.946Z,7.10
2018-01-26T23:17:38.625Z,7.10
2018-01-26T23:20:06.828Z,7.10
2018-01-26T23:22:34.649Z,7.10
2018-01-26T23:25:02.205Z,7.20
2018-01-26T23:27:30.788Z,7.20
2018-01-26T23:29:58.352Z,7.20
2018-01-26T23:32:25.890Z,7.20
2018-01-26T23:34:53.562Z,7.20
2018-01-26T23:37:21.103Z,7.20
2018-01-26T23:39:48.635Z,7.20
2018-01-26T23:42:16.208Z,7.20
2018-01-26T23:44:44.525Z,7.20
2018-01-26T23:47:12.095Z,7.10
2018-01-26T23:49:39.642Z,7.10
2018-01-26T23:52:07.185Z,7.10
2018-01-26T23:54:34.878Z,7.00
2018-01-26T23:57:02.428Z,7.00
2018-01-26T23:59:29.943Z,7.00
